sensor_id;sensor_type;location;lat;lon;timestamp;P1;durP1;ratioP1;P2;durP2;ratioP2
22146;SDS011;13074;48.298;14.424;2023-12-07T00:04:06;32.47;;;19.20;;
22146;SDS011;13074;48.298;14.424;2023-12-07T00:07:05;32.47;;;18.40;;
22146;SDS011;13074;48.298;14.424;2023-12-07T00:10:13;35.20;;;19.77;;
22146;SDS011;13074;48.298;14.424;2023-12-07T00:12:43;35.37;;;19.40;;
22146;SDS011;13074;48.298;14.424;2023-12-07T00:15:17;34.07;;;19.33;;
22146;SDS011;13074;48.298;14.424;2023-12-07T00:17:51;31.33;;;18.33;;
22146;SDS011;13074;48.298;14.424;2023-12-07T00:20:27;34.83;;;19.90;;
22146;SDS011;13074;48.298;14.424;2023-12-07T00:28:57;34.23;;;19.10;;
22146;SDS011;13074;48.298;14.424;2023-12-07T00:31:25;35.57;;;20.57;;
22146;SDS011;13074;48.298;14.424;2023-12-07T00:37:28;37.67;;;21.33;;
22146;SDS011;13074;48.298;14.424;2023-12-07T00:39:57;34.13;;;20.03;;
22146;SDS011;13074;48.298;14.424;2023-12-07T00:42:31;32.50;;;19.13;;
22146;SDS011;13074;48.298;14.424;2023-12-07T00:44:59;31.80;;;18.03;;
22146;SDS011;13074;48.298;14.424;2023-12-07T00:47:31;33.90;;;20.10;;
22146;SDS011;13074;48.298;14.424;2023-12-07T00:50:01;33.83;;;18.47;;
22146;SDS011;13074;48.298;14.424;2023-12-07T00:52:29;32.83;;;19.00;;
22146;SDS011;13074;48.298;14.424;2023-12-07T00:54:59;35.73;;;18.77;;
22146;SDS011;13074;48.298;14.424;2023-12-07T00:57:31;33.73;;;19.23;;
22146;SDS011;13074;48.298;14.424;2023-12-07T01:00:00;33.97;;;19.70;;
22146;SDS011;13074;48.298;14.424;2023-12-07T01:02:29;33.13;;;18.93;;
22146;SDS011;13074;48.298;14.424;2023-12-07T01:05:01;30.97;;;18.47;;
22146;SDS011;13074;48.298;14.424;2023-12-07T01:07:29;33.07;;;19.10;;
22146;SDS011;13074;48.298;14.424;2023-12-07T01:09:57;32.07;;;19.10;;
22146;SDS011;13074;48.298;14.424;2023-12-07T01:12:25;31.03;;;18.63;;
22146;SDS011;13074;48.298;14.424;2023-12-07T01:14:56;33.67;;;18.87;;
22146;SDS011;13074;48.298;14.424;2023-12-07T01:17:24;31.37;;;18.97;;
22146;SDS011;13074;48.298;14.424;2023-12-07T01:19:57;30.97;;;19.03;;
22146;SDS011;13074;48.298;14.424;2023-12-07T01:22:29;31.03;;;17.93;;
22146;SDS011;13074;48.298;14.424;2023-12-07T01:24:57;34.30;;;19.83;;
22146;SDS011;13074;48.298;14.424;2023-12-07T01:27:26;35.43;;;19.67;;
22146;SDS011;13074;48.298;14.424;2023-12-07T01:29:56;36.13;;;20.37;;
22146;SDS011;13074;48.298;14.424;2023-12-07T01:32:23;33.70;;;19.17;;
22146;SDS011;13074;48.298;14.424;2023-12-07T01:34:52;29.43;;;17.50;;
22146;SDS011;13074;48.298;14.424;2023-12-07T01:37:21;30.97;;;18.93;;
22146;SDS011;13074;48.298;14.424;2023-12-07T01:39:49;31.33;;;19.13;;
22146;SDS011;13074;48.298;14.424;2023-12-07T01:42:21;33.00;;;19.57;;
22146;SDS011;13074;48.298;14.424;2023-12-07T01:44:55;31.53;;;18.60;;
22146;SDS011;13074;48.298;14.424;2023-12-07T01:47:25;32.97;;;19.60;;
22146;SDS011;13074;48.298;14.424;2023-12-07T01:49:56;31.23;;;18.63;;
22146;SDS011;13074;48.298;14.424;2023-12-07T01:52:30;31.57;;;18.87;;
22146;SDS011;13074;48.298;14.424;2023-12-07T01:54:58;35.00;;;19.13;;
22146;SDS011;13074;48.298;14.424;2023-12-07T01:57:29;31.63;;;19.33;;
22146;SDS011;13074;48.298;14.424;2023-12-07T01:59:58;33.63;;;18.63;;
22146;SDS011;13074;48.298;14.424;2023-12-07T02:02:27;30.37;;;17.63;;
22146;SDS011;13074;48.298;14.424;2023-12-07T02:04:55;31.57;;;17.73;;
22146;SDS011;13074;48.298;14.424;2023-12-07T02:07:23;30.87;;;17.63;;
22146;SDS011;13074;48.298;14.424;2023-12-07T02:09:54;29.53;;;17.23;;
22146;SDS011;13074;48.298;14.424;2023-12-07T02:12:25;31.00;;;18.60;;
22146;SDS011;13074;48.298;14.424;2023-12-07T02:18:02;31.50;;;18.73;;
22146;SDS011;13074;48.298;14.424;2023-12-07T02:20:39;35.73;;;18.90;;
22146;SDS011;13074;48.298;14.424;2023-12-07T02:23:13;30.67;;;17.70;;
22146;SDS011;13074;48.298;14.424;2023-12-07T02:25:52;30.93;;;16.53;;
22146;SDS011;13074;48.298;14.424;2023-12-07T02:28:42;26.03;;;16.43;;
22146;SDS011;13074;48.298;14.424;2023-12-07T02:31:13;32.87;;;18.17;;
22146;SDS011;13074;48.298;14.424;2023-12-07T02:33:41;34.13;;;19.60;;
22146;SDS011;13074;48.298;14.424;2023-12-07T02:36:10;30.37;;;18.00;;
22146;SDS011;13074;48.298;14.424;2023-12-07T02:38:42;34.40;;;17.77;;
22146;SDS011;13074;48.298;14.424;2023-12-07T02:41:18;30.67;;;18.20;;
22146;SDS011;13074;48.298;14.424;2023-12-07T02:43:50;30.23;;;17.30;;
22146;SDS011;13074;48.298;14.424;2023-12-07T02:46:19;31.60;;;18.77;;
22146;SDS011;13074;48.298;14.424;2023-12-07T02:48:47;30.37;;;18.17;;
22146;SDS011;13074;48.298;14.424;2023-12-07T02:51:15;30.80;;;18.50;;
22146;SDS011;13074;48.298;14.424;2023-12-07T02:53:43;34.43;;;19.17;;
22146;SDS011;13074;48.298;14.424;2023-12-07T02:56:11;36.73;;;20.60;;
22146;SDS011;13074;48.298;14.424;2023-12-07T02:58:40;34.37;;;20.50;;
22146;SDS011;13074;48.298;14.424;2023-12-07T03:01:15;38.87;;;21.93;;
22146;SDS011;13074;48.298;14.424;2023-12-07T03:03:44;35.73;;;20.63;;
22146;SDS011;13074;48.298;14.424;2023-12-07T03:06:11;34.63;;;20.97;;
22146;SDS011;13074;48.298;14.424;2023-12-07T03:08:46;43.83;;;24.97;;
22146;SDS011;13074;48.298;14.424;2023-12-07T03:11:15;39.77;;;23.33;;
22146;SDS011;13074;48.298;14.424;2023-12-07T03:13:48;37.23;;;22.03;;
22146;SDS011;13074;48.298;14.424;2023-12-07T03:16:20;43.27;;;24.23;;
22146;SDS011;13074;48.298;14.424;2023-12-07T03:18:48;46.37;;;25.10;;
22146;SDS011;13074;48.298;14.424;2023-12-07T03:21:17;39.80;;;22.53;;
22146;SDS011;13074;48.298;14.424;2023-12-07T03:23:45;39.67;;;22.50;;
22146;SDS011;13074;48.298;14.424;2023-12-07T03:26:14;38.17;;;21.83;;
22146;SDS011;13074;48.298;14.424;2023-12-07T03:28:43;38.00;;;22.33;;
22146;SDS011;13074;48.298;14.424;2023-12-07T03:31:12;38.13;;;22.47;;
22146;SDS011;13074;48.298;14.424;2023-12-07T03:33:43;40.43;;;22.47;;
22146;SDS011;13074;48.298;14.424;2023-12-07T03:36:11;40.10;;;22.07;;
22146;SDS011;13074;48.298;14.424;2023-12-07T03:38:40;34.40;;;19.17;;
22146;SDS011;13074;48.298;14.424;2023-12-07T03:41:10;38.80;;;20.97;;
22146;SDS011;13074;48.298;14.424;2023-12-07T03:43:39;34.03;;;19.27;;
22146;SDS011;13074;48.298;14.424;2023-12-07T03:46:09;39.60;;;21.70;;
22146;SDS011;13074;48.298;14.424;2023-12-07T03:48:38;34.17;;;19.53;;
22146;SDS011;13074;48.298;14.424;2023-12-07T03:51:08;35.27;;;20.20;;
22146;SDS011;13074;48.298;14.424;2023-12-07T03:53:41;37.80;;;19.27;;
22146;SDS011;13074;48.298;14.424;2023-12-07T03:56:09;32.47;;;19.13;;
22146;SDS011;13074;48.298;14.424;2023-12-07T03:58:41;35.47;;;19.80;;
22146;SDS011;13074;48.298;14.424;2023-12-07T04:01:08;35.50;;;19.97;;
22146;SDS011;13074;48.298;14.424;2023-12-07T04:03:37;33.13;;;18.73;;
22146;SDS011;13074;48.298;14.424;2023-12-07T04:06:11;30.80;;;18.80;;
22146;SDS011;13074;48.298;14.424;2023-12-07T04:08:40;30.47;;;17.30;;
22146;SDS011;13074;48.298;14.424;2023-12-07T04:11:08;34.87;;;18.83;;
22146;SDS011;13074;48.298;14.424;2023-12-07T04:13:52;28.37;;;17.27;;
22146;SDS011;13074;48.298;14.424;2023-12-07T04:16:20;31.17;;;18.53;;
22146;SDS011;13074;48.298;14.424;2023-12-07T04:31:05;33.50;;;18.80;;
22146;SDS011;13074;48.298;14.424;2023-12-07T04:46:36;36.13;;;19.40;;
22146;SDS011;13074;48.298;14.424;2023-12-07T04:49:04;33.83;;;19.43;;
22146;SDS011;13074;48.298;14.424;2023-12-07T04:51:33;35.17;;;19.67;;
22146;SDS011;13074;48.298;14.424;2023-12-07T04:54:01;32.90;;;18.23;;
22146;SDS011;13074;48.298;14.424;2023-12-07T04:56:32;33.23;;;19.10;;
22146;SDS011;13074;48.298;14.424;2023-12-07T04:59:02;36.13;;;20.40;;
22146;SDS011;13074;48.298;14.424;2023-12-07T05:01:31;33.73;;;19.53;;
22146;SDS011;13074;48.298;14.424;2023-12-07T05:04:10;35.77;;;20.10;;
22146;SDS011;13074;48.298;14.424;2023-12-07T05:06:40;35.53;;;19.93;;
22146;SDS011;13074;48.298;14.424;2023-12-07T05:09:10;38.37;;;20.13;;
22146;SDS011;13074;48.298;14.424;2023-12-07T05:11:38;36.20;;;20.27;;
22146;SDS011;13074;48.298;14.424;2023-12-07T05:14:10;38.20;;;19.83;;
22146;SDS011;13074;48.298;14.424;2023-12-07T05:16:48;42.97;;;22.47;;
22146;SDS011;13074;48.298;14.424;2023-12-07T05:19:18;43.97;;;23.07;;
22146;SDS011;13074;48.298;14.424;2023-12-07T05:21:52;41.63;;;22.03;;
22146;SDS011;13074;48.298;14.424;2023-12-07T05:24:23;39.33;;;21.87;;
22146;SDS011;13074;48.298;14.424;2023-12-07T05:40:05;45.37;;;22.47;;
22146;SDS011;13074;48.298;14.424;2023-12-07T05:42:34;46.43;;;24.50;;
